Time;durP1;ratioP1;P1;durP2;ratioP2;P2;SDS_P1;SDS_P2;PMS_P1;PMS_P2;Temp;Humidity;BMP_temperature;BMP_pressure;BME280_temperature;BME280_humidity;BME280_pressure;Samples;Min_cycle;Max_cycle;Signal;HPM_P1;HPM_P2
2023/12/18 00:00:50;;;;;;;16.50;8.60;;;-0.70;99.90;;;;;;4950725;28;20180;-56
2023/12/18 00:03:16;;;;;;;15.63;9.40;;;-0.70;99.90;;;;;;4951934;28;20286;-55
2023/12/18 00:05:41;;;;;;;15.00;8.90;;;-0.80;99.90;;;;;;4949666;28;20205;-56
2023/12/18 00:08:08;;;;;;;18.27;9.77;;;-0.80;99.90;;;;;;4951024;28;20181;-57
2023/12/18 00:10:34;;;;;;;17.37;10.60;;;-0.80;99.90;;;;;;4948967;28;20176;-56
2023/12/18 00:13:00;;;;;;;17.73;9.80;;;-0.80;99.90;;;;;;4950441;28;20427;-57
2023/12/18 00:15:26;;;;;;;14.70;9.20;;;-0.80;99.90;;;;;;4949152;28;20205;-57
2023/12/18 00:17:52;;;;;;;13.33;8.03;;;-0.80;99.90;;;;;;4952273;28;20832;-57
2023/12/18 00:20:18;;;;;;;15.77;9.67;;;-0.80;99.90;;;;;;4952600;28;20428;-58
2023/12/18 00:22:43;;;;;;;16.43;9.50;;;-0.80;99.90;;;;;;4949726;28;20731;-57
2023/12/18 00:25:09;;;;;;;15.13;9.40;;;-0.90;99.90;;;;;;4950707;28;20579;-57
2023/12/18 00:27:34;;;;;;;28.63;11.10;;;-0.90;99.90;;;;;;4950261;28;20184;-57
2023/12/18 00:30:00;;;;;;;27.60;11.33;;;-1.00;99.90;;;;;;4951524;28;20173;-58
2023/12/18 00:32:25;;;;;;;56.37;13.30;;;-1.00;99.90;;;;;;4951698;28;20176;-57
2023/12/18 00:34:51;;;;;;;52.93;14.07;;;-1.10;99.90;;;;;;4949796;28;20204;-56
2023/12/18 00:37:17;;;;;;;24.90;11.73;;;-1.10;99.90;;;;;;4951910;28;20680;-57
2023/12/18 00:39:42;;;;;;;33.60;12.60;;;-1.10;99.90;;;;;;4951743;28;20184;-57
2023/12/18 00:42:08;;;;;;;49.03;12.83;;;-1.20;99.90;;;;;;4945386;28;20246;-56
2023/12/18 00:44:33;;;;;;;84.50;15.40;;;-1.20;99.90;;;;;;4951690;28;20229;-56
2023/12/18 00:46:59;;;;;;;23.00;11.07;;;-1.20;99.90;;;;;;4951164;28;20260;-57
2023/12/18 00:49:27;;;;;;;19.03;10.03;;;-1.30;99.90;;;;;;4951844;28;20647;-57
2023/12/18 00:51:53;;;;;;;17.03;10.10;;;-1.30;99.90;;;;;;4949854;28;20691;-56
2023/12/18 00:54:19;;;;;;;16.40;10.60;;;-1.30;99.90;;;;;;4947948;28;20448;-56
2023/12/18 00:56:44;;;;;;;16.80;10.20;;;-1.30;99.90;;;;;;4946557;28;20435;-56
2023/12/18 00:59:10;;;;;;;25.80;11.73;;;-1.40;99.90;;;;;;4951917;28;20184;-56
2023/12/18 01:01:35;;;;;;;19.10;10.10;;;-1.40;99.90;;;;;;4949543;28;20180;-56
2023/12/18 01:04:01;;;;;;;16.23;10.80;;;-1.40;99.90;;;;;;4948627;28;20742;-56
2023/12/18 01:06:26;;;;;;;17.40;10.33;;;-1.40;99.90;;;;;;4950620;28;20651;-56
2023/12/18 01:08:52;;;;;;;16.80;10.80;;;-1.40;99.90;;;;;;4951536;28;20178;-55
2023/12/18 01:11:17;;;;;;;16.73;10.00;;;-1.40;99.90;;;;;;4951937;28;20223;-55
2023/12/18 01:13:43;;;;;;;18.07;10.33;;;-1.40;99.90;;;;;;4951179;28;20181;-57
2023/12/18 01:16:09;;;;;;;17.60;11.00;;;-1.40;99.90;;;;;;4950619;28;20177;-56
2023/12/18 01:18:34;;;;;;;15.67;9.90;;;-1.40;99.90;;;;;;4948627;28;20184;-55
2023/12/18 01:21:03;;;;;;;15.03;10.00;;;-1.40;99.90;;;;;;4945292;28;20648;-57
2023/12/18 01:23:29;;;;;;;14.13;9.37;;;-1.40;99.90;;;;;;4949637;28;20207;-57
2023/12/18 01:25:54;;;;;;;20.73;10.87;;;-1.40;99.90;;;;;;4949369;28;20507;-56
2023/12/18 01:28:20;;;;;;;17.60;10.20;;;-1.40;99.90;;;;;;4953014;28;20663;-57
2023/12/18 01:30:45;;;;;;;14.53;8.53;;;-1.40;99.90;;;;;;4951692;28;20207;-56
2023/12/18 01:33:11;;;;;;;13.83;7.57;;;-1.40;99.90;;;;;;4946366;28;20318;-56
2023/12/18 01:35:36;;;;;;;14.10;8.07;;;-1.30;99.90;;;;;;4948541;28;20203;-56
2023/12/18 01:38:02;;;;;;;14.43;7.50;;;-1.30;99.90;;;;;;4949580;28;20831;-56
2023/12/18 01:40:28;;;;;;;12.80;8.10;;;-1.20;99.90;;;;;;4949773;28;20188;-57
2023/12/18 01:42:53;;;;;;;13.80;9.10;;;-1.20;99.90;;;;;;4950986;28;20239;-54
2023/12/18 01:45:19;;;;;;;17.17;9.63;;;-1.20;99.90;;;;;;4949854;28;20202;-56
2023/12/18 01:47:45;;;;;;;15.90;9.53;;;-1.20;99.90;;;;;;4951422;28;20185;-55
2023/12/18 01:50:10;;;;;;;14.50;9.10;;;-1.20;99.90;;;;;;4945786;28;20180;-57
2023/12/18 01:52:38;;;;;;;16.20;9.47;;;-1.30;99.90;;;;;;4953509;28;20208;-56
2023/12/18 01:55:06;;;;;;;13.63;9.10;;;-1.30;99.90;;;;;;4949072;28;20203;-56
2023/12/18 01:57:33;;;;;;;12.53;8.60;;;-1.30;99.90;;;;;;4947663;28;20509;-56
2023/12/18 01:59:59;;;;;;;13.87;8.83;;;-1.30;99.90;;;;;;4950143;28;20894;-56
2023/12/18 02:02:25;;;;;;;14.40;10.33;;;-1.40;99.90;;;;;;4952720;28;20466;-57
2023/12/18 02:04:51;;;;;;;15.80;7.47;;;-1.40;99.90;;;;;;4945328;28;20195;-57
2023/12/18 02:07:16;;;;;;;10.57;6.87;;;-1.40;99.90;;;;;;4948486;28;20483;-59
2023/12/18 02:09:42;;;;;;;14.50;6.90;;;-1.40;99.90;;;;;;4950457;28;21278;-56
2023/12/18 02:12:08;;;;;;;11.67;7.63;;;-1.40;99.90;;;;;;4949053;28;20276;-57
2023/12/18 02:14:34;;;;;;;12.03;7.47;;;-1.30;99.90;;;;;;4946002;28;20208;-56
2023/12/18 02:16:59;;;;;;;14.40;7.27;;;-1.30;99.90;;;;;;4950690;28;20188;-57
2023/12/18 02:19:26;;;;;;;13.90;7.20;;;-1.30;99.90;;;;;;4950879;28;20181;-56
2023/12/18 02:21:54;;;;;;;14.70;7.03;;;-1.20;99.90;;;;;;4948959;28;20200;-56
2023/12/18 02:24:20;;;;;;;18.90;8.10;;;-1.20;99.90;;;;;;4947622;28;20496;-57
2023/12/18 02:26:46;;;;;;;10.57;6.83;;;-1.20;99.90;;;;;;4946513;28;20413;-57
2023/12/18 02:29:12;;;;;;;23.00;9.43;;;-1.20;99.90;;;;;;4949163;28;20600;-57
2023/12/18 02:31:38;;;;;;;14.13;7.70;;;-1.20;99.90;;;;;;4948391;28;21013;-57
2023/12/18 02:34:04;;;;;;;14.33;8.20;;;-1.20;99.90;;;;;;4948750;28;20228;-56
2023/12/18 02:36:30;;;;;;;16.03;8.13;;;-1.30;99.90;;;;;;4950356;28;20484;-55
2023/12/18 02:38:55;;;;;;;11.60;7.83;;;-1.30;99.90;;;;;;4948397;28;20203;-57
2023/12/18 02:41:21;;;;;;;11.70;7.53;;;-1.30;99.90;;;;;;4945044;28;20299;-56
2023/12/18 02:43:46;;;;;;;13.30;7.40;;;-1.30;99.90;;;;;;4942909;28;20656;-55
2023/12/18 02:46:12;;;;;;;11.40;7.13;;;-1.40;99.90;;;;;;4943679;28;20503;-57
2023/12/18 02:48:38;;;;;;;13.47;7.07;;;-1.40;99.90;;;;;;4948934;28;20682;-58
2023/12/18 02:51:04;;;;;;;10.10;6.90;;;-1.30;99.90;;;;;;4950913;28;20176;-55
2023/12/18 02:53:29;;;;;;;11.33;7.40;;;-1.30;99.90;;;;;;4950222;28;20193;-56
2023/12/18 02:55:55;;;;;;;9.63;6.27;;;-1.30;99.90;;;;;;4944039;28;20828;-56
2023/12/18 02:58:22;;;;;;;14.00;7.27;;;-1.30;99.90;;;;;;4949386;28;20666;-56
2023/12/18 03:00:48;;;;;;;10.90;7.17;;;-1.30;99.90;;;;;;4948804;28;20188;-57
2023/12/18 03:03:14;;;;;;;14.70;7.33;;;-1.30;99.90;;;;;;4945867;28;21022;-57
2023/12/18 03:05:40;;;;;;;11.83;7.40;;;-1.30;99.90;;;;;;4943284;28;20451;-57
2023/12/18 03:08:06;;;;;;;12.70;7.30;;;-1.30;99.90;;;;;;4949550;28;20192;-57
2023/12/18 03:10:31;;;;;;;12.03;6.60;;;-1.30;99.90;;;;;;4949226;28;20613;-56
2023/12/18 03:12:57;;;;;;;11.57;7.57;;;-1.30;99.90;;;;;;4941724;28;20482;-57
2023/12/18 03:15:23;;;;;;;10.63;7.13;;;-1.30;99.90;;;;;;4951268;28;20206;-57
2023/12/18 03:17:48;;;;;;;13.00;7.70;;;-1.40;99.90;;;;;;4949446;28;20190;-56
2023/12/18 03:20:14;;;;;;;13.70;7.70;;;-1.40;99.90;;;;;;4947286;28;20181;-56
2023/12/18 03:22:39;;;;;;;13.10;6.90;;;-1.40;99.90;;;;;;4945809;28;20246;-57
2023/12/18 03:25:05;;;;;;;13.10;7.40;;;-1.50;99.90;;;;;;4946903;28;20200;-57
2023/12/18 03:27:31;;;;;;;11.70;7.17;;;-1.50;99.90;;;;;;4945673;28;20599;-56
2023/12/18 03:29:57;;;;;;;13.10;7.90;;;-1.50;99.90;;;;;;4942329;28;20436;-56
2023/12/18 03:32:22;;;;;;;11.63;7.70;;;-1.50;99.90;;;;;;4943285;28;20204;-56
2023/12/18 03:34:48;;;;;;;12.80;7.37;;;-1.50;99.90;;;;;;4948589;28;20287;-58
2023/12/18 03:37:13;;;;;;;11.37;7.40;;;-1.60;99.90;;;;;;4947480;28;20195;-57
2023/12/18 03:39:39;;;;;;;15.67;8.07;;;-1.50;99.90;;;;;;4948472;28;20177;-56
2023/12/18 03:42:05;;;;;;;16.10;8.37;;;-1.60;99.90;;;;;;4945270;28;20212;-57
2023/12/18 03:44:30;;;;;;;15.30;7.80;;;-1.60;99.90;;;;;;4949958;28;20739;-56
2023/12/18 03:46:57;;;;;;;12.73;7.60;;;-1.60;99.90;;;;;;4948325;28;20528;-56
2023/12/18 03:49:23;;;;;;;13.20;8.30;;;-1.60;99.90;;;;;;4951462;28;20593;-57
2023/12/18 03:51:49;;;;;;;15.03;8.10;;;-1.50;99.90;;;;;;4951778;28;20409;-56
2023/12/18 03:54:15;;;;;;;16.40;8.70;;;-1.60;99.90;;;;;;4951573;28;20203;-58
2023/12/18 03:56:41;;;;;;;11.80;7.73;;;-1.60;99.90;;;;;;4950320;28;20424;-57
2023/12/18 03:59:07;;;;;;;15.60;8.10;;;-1.60;99.90;;;;;;4946750;28;20430;-56
2023/12/18 04:01:33;;;;;;;15.43;7.40;;;-1.60;99.90;;;;;;4952320;28;20436;-57
2023/12/18 04:03:59;;;;;;;12.23;7.60;;;-1.60;99.90;;;;;;4945404;28;20212;-56
2023/12/18 04:06:25;;;;;;;11.30;7.00;;;-1.60;99.90;;;;;;4948990;28;20934;-57
2023/12/18 04:08:50;;;;;;;14.50;7.93;;;-1.70;99.90;;;;;;4949410;28;20177;-58
2023/12/18 04:11:16;;;;;;;13.67;8.10;;;-1.70;99.90;;;;;;4949653;28;20207;-57
2023/12/18 04:13:43;;;;;;;13.93;7.60;;;-1.70;99.90;;;;;;4943891;28;20239;-57
2023/12/18 04:16:08;;;;;;;12.20;7.33;;;-1.70;99.90;;;;;;4946663;28;20458;-57
2023/12/18 04:18:35;;;;;;;13.20;7.97;;;-1.70;99.90;;;;;;4952662;28;20427;-55
2023/12/18 04:21:01;;;;;;;20.20;8.77;;;-1.80;99.90;;;;;;4948930;28;20571;-57
2023/12/18 04:23:27;;;;;;;17.77;9.13;;;-1.80;99.90;;;;;;4946768;28;20467;-57
2023/12/18 04:25:52;;;;;;;15.67;8.73;;;-1.80;99.90;;;;;;4951217;28;20428;-57
2023/12/18 04:28:18;;;;;;;16.30;8.37;;;-1.80;99.90;;;;;;4951454;28;20753;-57
2023/12/18 04:30:43;;;;;;;18.90;9.87;;;-1.80;99.90;;;;;;4948679;28;20180;-57
2023/12/18 04:33:09;;;;;;;13.27;8.13;;;-1.80;99.90;;;;;;4945945;28;20687;-57
2023/12/18 04:35:35;;;;;;;14.33;8.07;;;-1.80;99.90;;;;;;4944257;28;20303;-57
2023/12/18 04:38:01;;;;;;;12.03;7.33;;;-1.80;99.90;;;;;;4951127;28;20183;-56
2023/12/18 04:40:27;;;;;;;14.60;7.40;;;-1.80;99.90;;;;;;4950955;28;20803;-57
2023/12/18 04:42:54;;;;;;;13.00;7.27;;;-1.80;99.90;;;;;;4949018;28;20546;-57
2023/12/18 04:45:20;;;;;;;11.93;7.00;;;-1.80;99.90;;;;;;4953442;28;20204;-57
2023/12/18 04:47:46;;;;;;;13.37;7.63;;;-1.80;99.90;;;;;;4950254;28;20412;-57
2023/12/18 04:50:12;;;;;;;11.10;7.07;;;-1.80;99.90;;;;;;4947853;28;20243;-55
2023/12/18 04:52:38;;;;;;;11.10;7.40;;;-1.90;99.90;;;;;;4944931;28;20446;-57
2023/12/18 04:55:04;;;;;;;11.83;7.40;;;-1.90;99.90;;;;;;4945075;28;20455;-56
2023/12/18 04:57:30;;;;;;;11.27;7.30;;;-1.90;99.90;;;;;;4950353;28;20231;-57
2023/12/18 04:59:55;;;;;;;15.83;8.97;;;-1.90;99.90;;;;;;4937742;28;20440;-57
2023/12/18 05:02:21;;;;;;;15.97;9.13;;;-1.90;99.90;;;;;;4943143;28;20201;-54
2023/12/18 05:04:47;;;;;;;15.23;8.97;;;-1.90;99.90;;;;;;4943376;28;20197;-57
2023/12/18 05:07:12;;;;;;;16.57;9.67;;;-1.80;99.90;;;;;;4942217;28;20444;-58
2023/12/18 05:09:39;;;;;;;17.23;9.53;;;-1.80;99.90;;;;;;4941154;28;20173;-57
2023/12/18 05:12:05;;;;;;;18.47;9.17;;;-1.80;99.90;;;;;;4932658;28;20200;-60
2023/12/18 05:14:30;;;;;;;17.30;9.57;;;-1.70;99.90;;;;;;4947950;28;20483;-59
2023/12/18 05:16:56;;;;;;;17.13;9.20;;;-1.70;99.90;;;;;;4944292;28;21099;-59
2023/12/18 05:19:22;;;;;;;15.33;8.93;;;-1.70;99.90;;;;;;4941783;28;20263;-58
2023/12/18 05:21:48;;;;;;;18.30;9.43;;;-1.60;99.90;;;;;;4943782;28;20195;-59
2023/12/18 05:24:14;;;;;;;16.87;9.63;;;-1.60;99.90;;;;;;4940742;28;20584;-58
2023/12/18 05:26:39;;;;;;;18.33;8.03;;;-1.60;99.90;;;;;;4943677;28;20211;-59
2023/12/18 05:29:05;;;;;;;14.77;7.80;;;-1.60;99.90;;;;;;4939514;28;20183;-56
2023/12/18 05:31:30;;;;;;;15.53;9.33;;;-1.60;99.90;;;;;;4945930;28;20184;-59
2023/12/18 05:33:57;;;;;;;16.33;8.67;;;-1.60;99.90;;;;;;4951370;28;20706;-61
2023/12/18 05:36:22;;;;;;;17.33;8.43;;;-1.60;99.90;;;;;;4946178;28;20180;-60
2023/12/18 05:38:48;;;;;;;15.77;8.33;;;-1.60;99.90;;;;;;4939441;28;20515;-60
2023/12/18 05:41:14;;;;;;;14.93;8.77;;;-1.70;99.90;;;;;;4935278;28;20239;-59
2023/12/18 05:43:39;;;;;;;24.50;9.30;;;-1.70;99.90;;;;;;4944488;28;20212;-59
2023/12/18 05:46:05;;;;;;;17.97;9.93;;;-1.70;99.90;;;;;;4942739;28;20238;-59
2023/12/18 05:48:31;;;;;;;17.03;10.30;;;-1.70;99.90;;;;;;4950168;28;20187;-61
2023/12/18 05:50:56;;;;;;;15.00;8.07;;;-1.70;99.90;;;;;;4945765;28;20188;-60
2023/12/18 05:53:22;;;;;;;17.20;8.10;;;-1.70;99.90;;;;;;4946043;28;20176;-59
2023/12/18 05:55:48;;;;;;;17.60;7.43;;;-1.80;99.90;;;;;;4944220;28;20212;-59
2023/12/18 05:58:13;;;;;;;17.70;8.63;;;-1.80;99.90;;;;;;4949007;28;20705;-59
2023/12/18 06:00:39;;;;;;;16.13;8.40;;;-1.80;99.90;;;;;;4947566;28;20535;-60
2023/12/18 06:03:04;;;;;;;14.57;8.90;;;-1.80;99.90;;;;;;4946141;28;20601;-59
2023/12/18 06:05:30;;;;;;;16.27;9.37;;;-1.90;99.90;;;;;;4939325;28;20208;-59
2023/12/18 06:07:55;;;;;;;21.47;10.10;;;-1.90;99.90;;;;;;4941087;28;20192;-59
2023/12/18 06:10:21;;;;;;;24.63;8.63;;;-1.90;99.90;;;;;;4951916;28;20213;-60
2023/12/18 06:12:49;;;;;;;15.93;8.83;;;-1.90;99.90;;;;;;4949354;28;20291;-58
2023/12/18 06:15:15;;;;;;;16.17;8.63;;;-1.90;99.90;;;;;;4946949;28;21769;-59
2023/12/18 06:17:40;;;;;;;15.13;8.90;;;-1.90;99.90;;;;;;4944296;28;20995;-58
2023/12/18 06:20:06;;;;;;;16.30;8.17;;;-2.00;99.90;;;;;;4946352;28;20180;-58
2023/12/18 06:22:32;;;;;;;15.67;8.70;;;-2.00;99.90;;;;;;4947363;28;20212;-60
2023/12/18 06:24:57;;;;;;;19.33;8.60;;;-2.00;99.90;;;;;;4946175;28;20448;-59
2023/12/18 06:27:23;;;;;;;13.80;7.90;;;-2.00;99.90;;;;;;4945729;28;20187;-59
2023/12/18 06:29:49;;;;;;;11.30;7.27;;;-2.00;99.90;;;;;;4949448;28;20264;-58
2023/12/18 06:32:14;;;;;;;16.30;8.90;;;-2.00;99.90;;;;;;4945092;28;21504;-59
2023/12/18 06:34:41;;;;;;;14.10;8.47;;;-2.10;99.90;;;;;;4941832;28;20204;-58
2023/12/18 06:37:07;;;;;;;14.77;8.97;;;-2.10;99.90;;;;;;4949487;28;20747;-58
2023/12/18 06:39:32;;;;;;;19.00;9.83;;;-2.10;99.90;;;;;;4948085;28;20436;-59
2023/12/18 06:41:58;;;;;;;17.30;9.83;;;-2.10;99.90;;;;;;4948377;28;20196;-58
2023/12/18 06:44:23;;;;;;;16.23;9.30;;;-2.10;99.90;;;;;;4946197;28;20211;-59
2023/12/18 06:46:49;;;;;;;21.10;10.80;;;-2.10;99.90;;;;;;4947155;28;20180;-58
2023/12/18 06:49:15;;;;;;;19.53;10.90;;;-2.10;99.90;;;;;;4943294;28;20672;-58
2023/12/18 06:51:40;;;;;;;20.30;12.10;;;-2.20;99.90;;;;;;4942981;28;20212;-58
2023/12/18 06:54:06;;;;;;;18.47;10.33;;;-2.20;99.90;;;;;;4946548;28;20802;-57
2023/12/18 06:56:32;;;;;;;24.73;13.00;;;-2.20;99.90;;;;;;4948838;28;20187;-57
2023/12/18 06:58:58;;;;;;;21.17;12.43;;;-2.20;99.90;;;;;;4945881;28;20242;-58
2023/12/18 07:01:23;;;;;;;19.37;10.80;;;-2.20;99.90;;;;;;4946910;28;20430;-58
2023/12/18 07:03:49;;;;;;;21.40;11.27;;;-2.20;99.90;;;;;;4947421;28;20282;-58
2023/12/18 07:06:17;;;;;;;26.00;12.20;;;-2.20;99.90;;;;;;4944388;28;20172;-57
2023/12/18 07:08:43;;;;;;;23.23;11.43;;;-2.20;99.90;;;;;;4947929;28;20178;-58
2023/12/18 07:11:08;;;;;;;20.00;12.03;;;-2.20;99.90;;;;;;4948184;28;20449;-58
2023/12/18 07:13:34;;;;;;;19.67;11.63;;;-2.20;99.90;;;;;;4938098;28;20184;-58
2023/12/18 07:15:59;;;;;;;19.70;11.70;;;-2.20;99.90;;;;;;4944885;28;20259;-59
2023/12/18 07:18:25;;;;;;;18.87;10.93;;;-2.20;99.90;;;;;;4944782;28;20180;-59
2023/12/18 07:20:51;;;;;;;25.17;13.23;;;-2.20;99.90;;;;;;4948707;28;20703;-58
2023/12/18 07:23:16;;;;;;;19.17;11.43;;;-2.20;99.90;;;;;;4947591;28;20207;-58
2023/12/18 07:25:42;;;;;;;26.43;13.47;;;-2.20;99.90;;;;;;4964401;28;20204;-59
2023/12/18 07:28:09;;;;;;;22.90;12.03;;;-2.20;99.90;;;;;;4953781;28;20250;-58
2023/12/18 07:30:39;;;;;;;25.00;12.70;;;-2.20;99.90;;;;;;4950185;28;20180;-58
2023/12/18 07:33:05;;;;;;;20.27;11.63;;;-2.20;99.90;;;;;;4950268;28;20411;-59
2023/12/18 07:35:31;;;;;;;18.63;11.13;;;-2.20;99.90;;;;;;4947521;28;20423;-58
2023/12/18 07:37:56;;;;;;;25.73;13.33;;;-2.20;99.90;;;;;;4952542;28;20418;-56
2023/12/18 07:40:22;;;;;;;21.27;12.67;;;-2.10;99.90;;;;;;4950216;28;20185;-58
2023/12/18 07:42:48;;;;;;;24.37;15.23;;;-2.10;99.90;;;;;;4947872;28;20560;-58
2023/12/18 07:45:13;;;;;;;22.73;12.53;;;-2.10;99.90;;;;;;4953201;28;20219;-59
2023/12/18 07:47:41;;;;;;;21.77;11.83;;;-2.10;99.90;;;;;;4953950;28;20534;-59
2023/12/18 07:50:07;;;;;;;24.67;13.57;;;-2.10;99.90;;;;;;4945937;28;20497;-59
2023/12/18 07:52:33;;;;;;;25.20;12.07;;;-2.10;99.90;;;;;;4950896;28;20422;-58
2023/12/18 07:54:58;;;;;;;21.90;12.27;;;-2.00;99.90;;;;;;4943453;28;20523;-59
2023/12/18 07:57:24;;;;;;;25.30;12.70;;;-2.00;99.90;;;;;;4941316;28;20531;-60
2023/12/18 07:59:49;;;;;;;22.70;12.17;;;-2.00;99.90;;;;;;4947354;28;20667;-58
2023/12/18 08:02:15;;;;;;;19.80;12.23;;;-2.00;99.90;;;;;;4943285;28;20651;-58
2023/12/18 08:04:41;;;;;;;25.40;12.07;;;-2.00;99.90;;;;;;4947716;28;20222;-58
2023/12/18 08:07:06;;;;;;;27.10;12.43;;;-2.00;99.90;;;;;;4948476;28;20221;-58
2023/12/18 08:09:32;;;;;;;31.40;12.10;;;-1.90;99.90;;;;;;4947295;28;20180;-58
2023/12/18 08:11:58;;;;;;;23.57;12.57;;;-1.90;99.90;;;;;;4949528;28;20184;-58
2023/12/18 08:14:24;;;;;;;25.90;11.83;;;-1.90;99.90;;;;;;4946312;28;20466;-58
2023/12/18 08:16:50;;;;;;;23.03;12.03;;;-1.90;99.90;;;;;;4949373;28;20416;-58
2023/12/18 08:19:16;;;;;;;23.07;12.47;;;-1.80;99.90;;;;;;4947358;28;21012;-57
2023/12/18 08:21:42;;;;;;;19.37;10.40;;;-1.80;99.90;;;;;;4942213;28;20708;-58
2023/12/18 08:24:07;;;;;;;24.80;12.50;;;-1.70;99.90;;;;;;4948070;28;20292;-57
2023/12/18 08:26:33;;;;;;;24.20;12.00;;;-1.70;99.90;;;;;;4950252;28;20172;-58
2023/12/18 08:28:59;;;;;;;26.17;12.03;;;-1.70;99.90;;;;;;4942336;28;20189;-57
2023/12/18 08:31:24;;;;;;;25.97;13.10;;;-1.60;99.90;;;;;;4941223;28;20653;-58
2023/12/18 08:33:50;;;;;;;34.53;15.47;;;-1.60;99.90;;;;;;4943299;28;20657;-58
2023/12/18 08:36:16;;;;;;;28.30;14.80;;;-1.50;99.90;;;;;;4947831;28;20181;-58
2023/12/18 08:38:41;;;;;;;25.67;14.37;;;-1.50;99.90;;;;;;4947839;28;20195;-58
2023/12/18 08:41:07;;;;;;;31.20;15.50;;;-1.40;99.90;;;;;;4951451;28;20256;-59
2023/12/18 08:43:32;;;;;;;27.80;13.80;;;-1.40;99.90;;;;;;4951621;28;20240;-58
2023/12/18 08:45:58;;;;;;;27.50;13.80;;;-1.30;99.90;;;;;;4947299;28;20214;-58
2023/12/18 08:48:24;;;;;;;31.97;14.43;;;-1.20;99.90;;;;;;4942479;28;20181;-58
2023/12/18 08:50:49;;;;;;;27.23;13.57;;;-1.20;99.90;;;;;;4939564;28;20216;-58
2023/12/18 08:53:15;;;;;;;26.73;12.30;;;-1.10;99.90;;;;;;4945724;28;20177;-59
2023/12/18 08:55:40;;;;;;;26.00;13.10;;;-1.10;99.90;;;;;;4942276;28;20200;-58
2023/12/18 08:58:09;;;;;;;24.47;13.27;;;-1.10;99.90;;;;;;4940303;28;20193;-58
2023/12/18 09:00:35;;;;;;;30.83;12.43;;;-1.00;99.90;;;;;;4944978;28;20177;-58
2023/12/18 09:03:01;;;;;;;25.23;12.80;;;-0.90;99.90;;;;;;4945106;28;20464;-58
2023/12/18 09:05:29;;;;;;;25.90;12.60;;;-0.90;99.90;;;;;;4947648;28;20934;-57
2023/12/18 09:07:54;;;;;;;23.03;11.10;;;-0.90;99.90;;;;;;4954773;28;20408;-58
2023/12/18 09:10:23;;;;;;;25.23;11.90;;;-0.80;99.90;;;;;;4945960;28;20416;-58
2023/12/18 09:12:50;;;;;;;28.07;13.47;;;-0.70;99.90;;;;;;4948294;28;20669;-57
2023/12/18 09:15:16;;;;;;;26.13;13.77;;;-0.70;99.90;;;;;;4945902;28;21834;-57
2023/12/18 09:17:41;;;;;;;33.47;15.60;;;-0.60;99.90;;;;;;4952933;28;20452;-54
2023/12/18 09:20:07;;;;;;;19.57;11.27;;;-0.60;99.90;;;;;;4945746;28;20181;-53
2023/12/18 09:22:33;;;;;;;27.10;11.93;;;-0.50;99.90;;;;;;4945113;28;20197;-58
2023/12/18 09:24:59;;;;;;;34.57;15.67;;;-0.40;99.90;;;;;;4949371;28;20467;-57
2023/12/18 09:27:24;;;;;;;28.50;12.90;;;-0.40;99.90;;;;;;4951783;28;20227;-58
2023/12/18 09:29:50;;;;;;;28.57;14.10;;;-0.30;99.90;;;;;;4948142;28;20185;-58
2023/12/18 09:32:16;;;;;;;30.90;14.70;;;-0.20;99.90;;;;;;4942423;28;20660;-57
2023/12/18 09:34:42;;;;;;;35.77;16.63;;;-0.10;99.90;;;;;;4942924;28;20697;-57
2023/12/18 09:37:07;;;;;;;36.57;16.20;;;0.00;99.90;;;;;;4944439;28;20474;-58
2023/12/18 09:39:33;;;;;;;39.80;17.53;;;0.00;99.90;;;;;;4936913;28;20181;-59
2023/12/18 09:42:02;;;;;;;40.23;16.77;;;0.10;99.90;;;;;;4944380;28;20182;-57
2023/12/18 09:44:31;;;;;;;38.40;15.83;;;0.20;99.90;;;;;;4949178;28;20209;-58
2023/12/18 09:46:59;;;;;;;37.60;15.97;;;0.20;99.90;;;;;;4951069;28;20408;-58
2023/12/18 09:49:24;;;;;;;39.03;16.00;;;0.30;99.90;;;;;;4938879;28;20957;-58
2023/12/18 09:51:53;;;;;;;34.90;15.10;;;0.40;99.90;;;;;;4943236;28;20441;-56
2023/12/18 09:54:20;;;;;;;34.33;14.67;;;0.40;99.90;;;;;;4945946;28;20638;-57
2023/12/18 09:56:48;;;;;;;40.70;15.40;;;0.50;99.90;;;;;;4945324;28;20491;-57
2023/12/18 09:59:16;;;;;;;50.83;16.70;;;0.60;99.90;;;;;;4945305;28;20440;-57
2023/12/18 10:01:42;;;;;;;35.03;15.60;;;0.60;99.90;;;;;;4943414;28;20428;-58
2023/12/18 10:04:08;;;;;;;35.43;14.60;;;0.70;99.90;;;;;;4949028;28;21038;-57
2023/12/18 10:06:34;;;;;;;36.97;17.07;;;0.80;99.90;;;;;;4939946;28;20436;-58
2023/12/18 10:09:03;;;;;;;38.73;16.33;;;0.80;99.90;;;;;;4945896;28;20204;-58
2023/12/18 10:11:29;;;;;;;33.23;14.93;;;0.90;99.90;;;;;;4941056;28;20185;-58
2023/12/18 10:13:55;;;;;;;37.00;14.83;;;1.00;99.90;;;;;;4945247;28;20578;-57
2023/12/18 10:16:21;;;;;;;30.10;14.53;;;1.00;99.90;;;;;;4944525;28;20185;-58
2023/12/18 10:18:47;;;;;;;36.00;15.10;;;1.10;99.90;;;;;;4945530;28;20433;-57
2023/12/18 10:21:12;;;;;;;33.47;14.83;;;1.20;99.90;;;;;;4947176;28;20424;-57
2023/12/18 10:23:39;;;;;;;34.47;15.87;;;1.20;99.90;;;;;;4945648;28;20671;-55
2023/12/18 10:26:04;;;;;;;38.33;15.50;;;1.40;99.90;;;;;;4940135;28;20209;-57
2023/12/18 10:28:30;;;;;;;33.47;15.00;;;1.40;99.90;;;;;;4947222;28;20543;-52
2023/12/18 10:30:59;;;;;;;34.33;15.43;;;1.60;99.90;;;;;;4953112;28;20219;-52
2023/12/18 10:33:25;;;;;;;29.83;14.97;;;1.70;99.90;;;;;;4943331;28;20232;-59
2023/12/18 10:35:53;;;;;;;31.60;14.57;;;1.80;99.90;;;;;;4943324;28;20547;-58
2023/12/18 10:38:23;;;;;;;33.37;14.90;;;1.90;99.90;;;;;;4944086;28;21102;-57
2023/12/18 10:40:54;;;;;;;25.93;13.97;;;1.90;99.90;;;;;;4942657;28;20499;-58
2023/12/18 10:43:23;;;;;;;32.93;13.97;;;2.00;99.90;;;;;;4943142;28;20879;-56
2023/12/18 10:45:49;;;;;;;26.63;12.73;;;2.00;99.90;;;;;;4944941;28;20446;-57
2023/12/18 10:48:17;;;;;;;25.13;13.97;;;2.10;99.90;;;;;;4944738;28;20880;-58
2023/12/18 10:50:44;;;;;;;30.67;14.07;;;2.20;99.90;;;;;;4942505;28;20429;-58
2023/12/18 10:53:13;;;;;;;30.83;15.33;;;2.20;99.90;;;;;;4943960;28;20439;-58
2023/12/18 10:55:41;;;;;;;28.43;14.97;;;2.30;99.90;;;;;;4944871;28;20472;-56
2023/12/18 10:58:10;;;;;;;28.80;13.97;;;2.40;99.90;;;;;;4943376;28;20799;-56
2023/12/18 11:00:37;;;;;;;28.57;14.23;;;2.50;99.90;;;;;;4943668;28;20513;-57
2023/12/18 11:03:05;;;;;;;29.40;14.30;;;2.60;99.90;;;;;;4943725;28;20486;-54
2023/12/18 11:05:32;;;;;;;33.77;14.47;;;2.60;99.90;;;;;;4944633;28;20525;-53
2023/12/18 11:07:58;;;;;;;33.17;15.37;;;2.70;99.90;;;;;;4944210;28;20453;-55
2023/12/18 11:10:25;;;;;;;28.27;14.30;;;2.80;99.90;;;;;;4933634;28;20443;-54
2023/12/18 11:13:05;;;;;;;35.87;13.50;;;2.90;99.90;;;;;;4938897;28;20493;-55
2023/12/18 11:15:47;;;;;;;29.47;14.20;;;3.00;99.90;;;;;;4942517;28;20462;-54
2023/12/18 11:18:28;;;;;;;32.40;15.97;;;3.10;99.90;;;;;;4942690;28;20441;-56
2023/12/18 11:20:56;;;;;;;25.93;13.90;;;3.20;99.90;;;;;;4944995;28;20434;-57
2023/12/18 11:23:26;;;;;;;31.63;13.70;;;3.30;99.90;;;;;;4945524;28;21002;-55
2023/12/18 11:25:52;;;;;;;35.43;16.00;;;3.30;99.90;;;;;;4944553;28;20449;-57
2023/12/18 11:28:18;;;;;;;34.80;15.70;;;3.40;99.90;;;;;;4944978;28;20418;-58
2023/12/18 11:30:44;;;;;;;33.30;17.90;;;3.40;99.90;;;;;;4941546;28;20194;-55
2023/12/18 11:33:13;;;;;;;31.93;16.33;;;3.40;99.90;;;;;;4945125;28;20420;-57
2023/12/18 11:35:44;;;;;;;32.23;16.20;;;3.50;99.90;;;;;;4946098;28;20475;-61
2023/12/18 11:38:14;;;;;;;32.80;17.27;;;3.40;99.90;;;;;;4942115;28;20436;-57
2023/12/18 11:40:48;;;;;;;42.50;17.07;;;3.40;99.90;;;;;;4943742;28;20496;-57
2023/12/18 11:43:37;;;;;;;29.43;15.87;;;3.30;99.90;;;;;;4945553;28;21565;-57
2023/12/18 11:46:14;;;;;;;28.67;15.47;;;3.30;99.90;;;;;;4939025;28;20456;-57
2023/12/18 11:48:40;;;;;;;26.90;12.70;;;3.30;99.90;;;;;;4944276;28;20417;-58
2023/12/18 11:51:06;;;;;;;28.23;13.70;;;3.30;99.90;;;;;;4944566;28;20418;-56
2023/12/18 11:53:35;;;;;;;28.20;12.63;;;3.30;99.90;;;;;;4945913;28;20422;-56
2023/12/18 11:56:06;;;;;;;29.57;17.40;;;3.30;99.90;;;;;;4942957;28;20194;-58
2023/12/18 11:58:34;;;;;;;29.40;14.40;;;3.30;99.90;;;;;;4945217;28;20480;-57
2023/12/18 12:00:59;;;;;;;29.97;14.10;;;3.30;99.90;;;;;;4946006;28;20422;-56
2023/12/18 12:03:25;;;;;;;26.13;12.70;;;3.30;99.90;;;;;;4948764;28;21160;-57
2023/12/18 12:05:52;;;;;;;25.50;12.70;;;3.30;99.90;;;;;;4947535;28;20277;-58
2023/12/18 12:08:18;;;;;;;21.33;12.83;;;3.30;99.90;;;;;;4945220;28;20435;-56
2023/12/18 12:10:45;;;;;;;19.20;12.13;;;3.40;99.90;;;;;;4946103;28;20449;-58
2023/12/18 12:13:27;;;;;;;22.10;10.93;;;3.40;99.90;;;;;;4943343;28;20613;-60
2023/12/18 12:15:59;;;;;;;27.37;12.53;;;3.40;99.90;;;;;;4949763;28;20947;-56
2023/12/18 12:18:33;;;;;;;23.20;11.77;;;3.50;99.90;;;;;;4952620;28;20418;-58
2023/12/18 12:20:59;;;;;;;28.23;12.43;;;3.50;99.90;;;;;;4944728;28;20444;-56
2023/12/18 12:23:26;;;;;;;24.47;13.70;;;3.50;99.90;;;;;;4948708;28;20458;-59
2023/12/18 12:25:56;;;;;;;24.13;13.77;;;3.60;99.90;;;;;;4950157;28;20452;-58
2023/12/18 12:28:22;;;;;;;28.80;15.30;;;3.60;99.90;;;;;;4944336;28;20418;-58